sensor_id;sensor_type;location;lat;lon;timestamp;temperature;humidity
43524;DHT22;29120;52.006;6.020;2022-10-16T00:01:24;11.90;99.90
43524;DHT22;29120;52.006;6.020;2022-10-16T00:03:51;11.90;99.90
43524;DHT22;29120;52.006;6.020;2022-10-16T00:06:19;11.80;99.90
43524;DHT22;29120;52.006;6.020;2022-10-16T00:08:45;11.80;99.90
43524;DHT22;29120;52.006;6.020;2022-10-16T00:11:15;11.70;99.90
43524;DHT22;29120;52.006;6.020;2022-10-16T00:13:43;11.70;99.90
43524;DHT22;29120;52.006;6.020;2022-10-16T00:16:12;11.60;99.90
43524;DHT22;29120;52.006;6.020;2022-10-16T00:18:38;11.60;99.90
43524;DHT22;29120;52.006;6.020;2022-10-16T00:21:24;11.50;99.90
43524;DHT22;29120;52.006;6.020;2022-10-16T00:23:51;11.50;99.90
43524;DHT22;29120;52.006;6.020;2022-10-16T00:26:18;11.40;99.90
43524;DHT22;29120;52.006;6.020;2022-10-16T00:28:46;11.40;99.90
43524;DHT22;29120;52.006;6.020;2022-10-16T00:31:12;11.30;99.90
43524;DHT22;29120;52.006;6.020;2022-10-16T00:33:39;11.30;99.90
43524;DHT22;29120;52.006;6.020;2022-10-16T00:36:06;11.30;99.90
43524;DHT22;29120;52.006;6.020;2022-10-16T00:38:32;11.30;99.90
43524;DHT22;29120;52.006;6.020;2022-10-16T00:40:58;11.20;99.90
43524;DHT22;29120;52.006;6.020;2022-10-16T00:43:57;11.20;99.90
43524;DHT22;29120;52.006;6.020;2022-10-16T00:46:39;11.20;99.90
43524;DHT22;29120;52.006;6.020;2022-10-16T00:49:10;11.20;99.90
43524;DHT22;29120;52.006;6.020;2022-10-16T00:51:42;11.10;99.90
43524;DHT22;29120;52.006;6.020;2022-10-16T00:54:14;11.10;99.90
43524;DHT22;29120;52.006;6.020;2022-10-16T00:56:41;11.10;99.90
43524;DHT22;29120;52.006;6.020;2022-10-16T00:59:15;11.10;99.90
43524;DHT22;29120;52.006;6.020;2022-10-16T01:01:41;11.10;99.90
43524;DHT22;29120;52.006;6.020;2022-10-16T01:04:07;11.10;99.90
43524;DHT22;29120;52.006;6.020;2022-10-16T01:06:59;11.20;99.90
43524;DHT22;29120;52.006;6.020;2022-10-16T01:09:44;11.20;99.90
43524;DHT22;29120;52.006;6.020;2022-10-16T01:12:19;11.20;99.90
43524;DHT22;29120;52.006;6.020;2022-10-16T01:14:55;11.20;99.90
43524;DHT22;29120;52.006;6.020;2022-10-16T01:17:34;11.20;99.90
43524;DHT22;29120;52.006;6.020;2022-10-16T01:20:28;11.20;99.90
43524;DHT22;29120;52.006;6.020;2022-10-16T01:29:06;11.20;99.90
43524;DHT22;29120;52.006;6.020;2022-10-16T01:31:36;11.20;99.90
43524;DHT22;29120;52.006;6.020;2022-10-16T01:36:56;11.20;99.90
43524;DHT22;29120;52.006;6.020;2022-10-16T01:39:26;11.10;99.90
43524;DHT22;29120;52.006;6.020;2022-10-16T01:41:58;11.10;99.90
43524;DHT22;29120;52.006;6.020;2022-10-16T01:44:27;11.10;99.90
43524;DHT22;29120;52.006;6.020;2022-10-16T01:46:54;11.10;99.90
43524;DHT22;29120;52.006;6.020;2022-10-16T01:49:22;11.10;99.90
43524;DHT22;29120;52.006;6.020;2022-10-16T01:51:52;11.10;99.90
43524;DHT22;29120;52.006;6.020;2022-10-16T01:54:20;11.20;99.90
43524;DHT22;29120;52.006;6.020;2022-10-16T01:56:50;11.30;99.90
43524;DHT22;29120;52.006;6.020;2022-10-16T01:59:20;11.30;99.90
43524;DHT22;29120;52.006;6.020;2022-10-16T02:01:52;11.40;99.90
43524;DHT22;29120;52.006;6.020;2022-10-16T02:04:29;11.50;99.90
43524;DHT22;29120;52.006;6.020;2022-10-16T02:06:55;11.50;99.90
43524;DHT22;29120;52.006;6.020;2022-10-16T02:09:21;11.60;99.90
43524;DHT22;29120;52.006;6.020;2022-10-16T02:11:47;11.70;99.90
43524;DHT22;29120;52.006;6.020;2022-10-16T02:14:15;11.70;99.90
43524;DHT22;29120;52.006;6.020;2022-10-16T02:16:42;11.70;99.90
43524;DHT22;29120;52.006;6.020;2022-10-16T02:19:09;11.70;99.90
43524;DHT22;29120;52.006;6.020;2022-10-16T02:26:46;11.80;99.90
43524;DHT22;29120;52.006;6.020;2022-10-16T02:29:16;11.90;99.90
43524;DHT22;29120;52.006;6.020;2022-10-16T02:31:46;11.90;99.90
43524;DHT22;29120;52.006;6.020;2022-10-16T02:34:13;12.00;99.90
43524;DHT22;29120;52.006;6.020;2022-10-16T02:36:40;12.00;99.90
43524;DHT22;29120;52.006;6.020;2022-10-16T02:39:08;12.10;99.90
43524;DHT22;29120;52.006;6.020;2022-10-16T02:41:34;12.10;99.90
43524;DHT22;29120;52.006;6.020;2022-10-16T02:44:00;12.10;99.90
43524;DHT22;29120;52.006;6.020;2022-10-16T02:46:26;12.10;99.90
43524;DHT22;29120;52.006;6.020;2022-10-16T02:48:51;12.10;99.90
43524;DHT22;29120;52.006;6.020;2022-10-16T02:51:17;12.10;99.90
43524;DHT22;29120;52.006;6.020;2022-10-16T02:53:42;12.10;99.90
43524;DHT22;29120;52.006;6.020;2022-10-16T02:56:08;12.00;99.90
43524;DHT22;29120;52.006;6.020;2022-10-16T02:58:33;12.00;99.90
43524;DHT22;29120;52.006;6.020;2022-10-16T03:00:59;12.00;99.90
43524;DHT22;29120;52.006;6.020;2022-10-16T03:03:25;11.90;99.90
43524;DHT22;29120;52.006;6.020;2022-10-16T03:05:50;11.90;99.90
43524;DHT22;29120;52.006;6.020;2022-10-16T03:08:16;11.90;99.90
43524;DHT22;29120;52.006;6.020;2022-10-16T03:10:41;11.80;99.90
43524;DHT22;29120;52.006;6.020;2022-10-16T03:13:07;11.80;99.90
43524;DHT22;29120;52.006;6.020;2022-10-16T03:15:32;11.80;99.90
43524;DHT22;29120;52.006;6.020;2022-10-16T03:17:58;11.80;99.90
43524;DHT22;29120;52.006;6.020;2022-10-16T03:20:24;11.80;99.90
43524;DHT22;29120;52.006;6.020;2022-10-16T03:22:50;11.80;99.90
43524;DHT22;29120;52.006;6.020;2022-10-16T03:25:16;11.90;99.90
43524;DHT22;29120;52.006;6.020;2022-10-16T03:27:41;11.90;99.90
43524;DHT22;29120;52.006;6.020;2022-10-16T03:30:07;11.90;99.90
43524;DHT22;29120;52.006;6.020;2022-10-16T03:32:33;11.90;99.90
43524;DHT22;29120;52.006;6.020;2022-10-16T03:34:58;11.90;99.90
43524;DHT22;29120;52.006;6.020;2022-10-16T03:37:24;11.90;99.90
43524;DHT22;29120;52.006;6.020;2022-10-16T03:39:50;12.00;99.90
43524;DHT22;29120;52.006;6.020;2022-10-16T03:42:15;12.00;99.90
43524;DHT22;29120;52.006;6.020;2022-10-16T03:44:41;12.00;99.90
43524;DHT22;29120;52.006;6.020;2022-10-16T03:47:06;12.00;99.90
43524;DHT22;29120;52.006;6.020;2022-10-16T03:49:32;12.00;99.90
43524;DHT22;29120;52.006;6.020;2022-10-16T03:51:57;12.00;99.90
43524;DHT22;29120;52.006;6.020;2022-10-16T03:54:23;12.00;99.90
43524;DHT22;29120;52.006;6.020;2022-10-16T03:56:48;12.00;99.90
43524;DHT22;29120;52.006;6.020;2022-10-16T03:59:14;12.00;99.90
43524;DHT22;29120;52.006;6.020;2022-10-16T04:01:40;12.00;99.90
43524;DHT22;29120;52.006;6.020;2022-10-16T04:04:05;12.10;99.90
43524;DHT22;29120;52.006;6.020;2022-10-16T04:06:31;12.10;99.90
43524;DHT22;29120;52.006;6.020;2022-10-16T04:08:56;12.10;99.90
43524;DHT22;29120;52.006;6.020;2022-10-16T04:11:22;12.10;99.90
43524;DHT22;29120;52.006;6.020;2022-10-16T04:13:48;12.10;99.90
43524;DHT22;29120;52.006;6.020;2022-10-16T04:16:13;12.10;99.90
43524;DHT22;29120;52.006;6.020;2022-10-16T04:18:39;12.20;99.90
43524;DHT22;29120;52.006;6.020;2022-10-16T04:21:06;12.20;99.90
43524;DHT22;29120;52.006;6.020;2022-10-16T04:23:32;12.30;99.90
43524;DHT22;29120;52.006;6.020;2022-10-16T04:25:57;12.30;99.90
43524;DHT22;29120;52.006;6.020;2022-10-16T04:28:23;12.40;99.90
43524;DHT22;29120;52.006;6.020;2022-10-16T04:30:49;12.40;99.90
43524;DHT22;29120;52.006;6.020;2022-10-16T04:33:14;12.50;99.90
43524;DHT22;29120;52.006;6.020;2022-10-16T04:35:40;12.50;99.90
43524;DHT22;29120;52.006;6.020;2022-10-16T04:38:05;12.50;99.90
43524;DHT22;29120;52.006;6.020;2022-10-16T04:40:31;12.50;99.90
43524;DHT22;29120;52.006;6.020;2022-10-16T04:42:58;12.50;99.90
43524;DHT22;29120;52.006;6.020;2022-10-16T04:45:24;12.50;99.90
43524;DHT22;29120;52.006;6.020;2022-10-16T04:47:50;12.50;99.90
43524;DHT22;29120;52.006;6.020;2022-10-16T04:50:16;12.50;99.90
43524;DHT22;29120;52.006;6.020;2022-10-16T04:52:41;12.50;99.90
43524;DHT22;29120;52.006;6.020;2022-10-16T04:55:07;12.50;99.90
43524;DHT22;29120;52.006;6.020;2022-10-16T04:57:32;12.40;99.90
43524;DHT22;29120;52.006;6.020;2022-10-16T04:59:58;12.40;99.90
43524;DHT22;29120;52.006;6.020;2022-10-16T05:02:24;12.40;99.90
43524;DHT22;29120;52.006;6.020;2022-10-16T05:04:50;12.30;99.90
43524;DHT22;29120;52.006;6.020;2022-10-16T05:07:15;12.30;99.90
43524;DHT22;29120;52.006;6.020;2022-10-16T05:09:41;12.30;99.90
43524;DHT22;29120;52.006;6.020;2022-10-16T05:12:06;12.30;99.90
43524;DHT22;29120;52.006;6.020;2022-10-16T05:14:32;12.30;99.90
43524;DHT22;29120;52.006;6.020;2022-10-16T05:16:57;12.40;99.90
43524;DHT22;29120;52.006;6.020;2022-10-16T05:19:24;12.40;99.90
43524;DHT22;29120;52.006;6.020;2022-10-16T05:21:49;12.40;99.90
43524;DHT22;29120;52.006;6.020;2022-10-16T05:24:15;12.40;99.90
43524;DHT22;29120;52.006;6.020;2022-10-16T05:26:41;12.30;99.90
43524;DHT22;29120;52.006;6.020;2022-10-16T05:29:06;12.30;99.90
43524;DHT22;29120;52.006;6.020;2022-10-16T05:31:32;12.30;99.90
43524;DHT22;29120;52.006;6.020;2022-10-16T05:33:58;12.20;99.90
43524;DHT22;29120;52.006;6.020;2022-10-16T05:36:25;12.10;99.90
43524;DHT22;29120;52.006;6.020;2022-10-16T05:38:51;12.10;99.90
43524;DHT22;29120;52.006;6.020;2022-10-16T05:41:16;12.10;99.90
43524;DHT22;29120;52.006;6.020;2022-10-16T05:43:47;12.10;99.90
43524;DHT22;29120;52.006;6.020;2022-10-16T05:46:12;12.10;99.90
43524;DHT22;29120;52.006;6.020;2022-10-16T05:48:38;12.00;99.90
43524;DHT22;29120;52.006;6.020;2022-10-16T05:51:06;12.00;99.90
43524;DHT22;29120;52.006;6.020;2022-10-16T05:53:35;11.90;99.90
43524;DHT22;29120;52.006;6.020;2022-10-16T05:56:01;11.90;99.90
43524;DHT22;29120;52.006;6.020;2022-10-16T05:58:32;11.90;99.90
43524;DHT22;29120;52.006;6.020;2022-10-16T06:01:04;11.90;99.90
43524;DHT22;29120;52.006;6.020;2022-10-16T06:03:30;11.90;99.90
43524;DHT22;29120;52.006;6.020;2022-10-16T06:05:56;12.00;99.90
43524;DHT22;29120;52.006;6.020;2022-10-16T06:08:22;11.90;99.90
43524;DHT22;29120;52.006;6.020;2022-10-16T06:10:49;11.90;99.90
43524;DHT22;29120;52.006;6.020;2022-10-16T06:13:15;11.90;99.90
43524;DHT22;29120;52.006;6.020;2022-10-16T06:15:41;11.90;99.90
43524;DHT22;29120;52.006;6.020;2022-10-16T06:18:08;11.90;99.90
43524;DHT22;29120;52.006;6.020;2022-10-16T06:20:34;11.90;99.90
43524;DHT22;29120;52.006;6.020;2022-10-16T06:23:00;11.80;99.90
43524;DHT22;29120;52.006;6.020;2022-10-16T06:25:25;11.80;99.90
43524;DHT22;29120;52.006;6.020;2022-10-16T06:27:51;11.80;99.90
43524;DHT22;29120;52.006;6.020;2022-10-16T06:30:16;11.90;99.90
43524;DHT22;29120;52.006;6.020;2022-10-16T06:32:42;12.00;99.90
43524;DHT22;29120;52.006;6.020;2022-10-16T06:35:07;12.10;99.90
43524;DHT22;29120;52.006;6.020;2022-10-16T06:37:33;12.10;99.90
43524;DHT22;29120;52.006;6.020;2022-10-16T06:39:58;12.20;99.90
43524;DHT22;29120;52.006;6.020;2022-10-16T06:42:25;12.20;99.90
43524;DHT22;29120;52.006;6.020;2022-10-16T06:44:51;12.30;99.90
43524;DHT22;29120;52.006;6.020;2022-10-16T06:47:16;12.40;99.90
43524;DHT22;29120;52.006;6.020;2022-10-16T06:49:42;12.50;99.90
43524;DHT22;29120;52.006;6.020;2022-10-16T06:52:07;12.60;99.90
43524;DHT22;29120;52.006;6.020;2022-10-16T06:54:33;12.70;99.90
43524;DHT22;29120;52.006;6.020;2022-10-16T06:56:58;12.70;99.90
43524;DHT22;29120;52.006;6.020;2022-10-16T06:59:25;12.80;99.90
43524;DHT22;29120;52.006;6.020;2022-10-16T07:01:50;12.80;99.90
43524;DHT22;29120;52.006;6.020;2022-10-16T07:04:16;12.90;99.90
43524;DHT22;29120;52.006;6.020;2022-10-16T07:06:41;13.00;99.90
43524;DHT22;29120;52.006;6.020;2022-10-16T07:09:10;13.00;99.90
43524;DHT22;29120;52.006;6.020;2022-10-16T07:11:37;13.10;99.90
43524;DHT22;29120;52.006;6.020;2022-10-16T07:14:04;13.10;99.90
43524;DHT22;29120;52.006;6.020;2022-10-16T07:16:31;13.20;99.90
43524;DHT22;29120;52.006;6.020;2022-10-16T07:18:58;13.20;99.90
43524;DHT22;29120;52.006;6.020;2022-10-16T07:21:26;13.30;99.90
43524;DHT22;29120;52.006;6.020;2022-10-16T07:23:55;13.30;99.90
43524;DHT22;29120;52.006;6.020;2022-10-16T07:26:21;13.40;99.90
43524;DHT22;29120;52.006;6.020;2022-10-16T07:28:48;13.40;99.90
43524;DHT22;29120;52.006;6.020;2022-10-16T07:31:14;13.50;99.90
43524;DHT22;29120;52.006;6.020;2022-10-16T07:33:41;13.60;99.90
43524;DHT22;29120;52.006;6.020;2022-10-16T07:36:08;13.60;99.90
43524;DHT22;29120;52.006;6.020;2022-10-16T07:38:34;13.70;99.90
43524;DHT22;29120;52.006;6.020;2022-10-16T07:41:02;13.80;99.90
43524;DHT22;29120;52.006;6.020;2022-10-16T07:43:28;13.90;99.90
43524;DHT22;29120;52.006;6.020;2022-10-16T07:45:54;14.10;99.90
43524;DHT22;29120;52.006;6.020;2022-10-16T07:48:21;14.20;99.90
43524;DHT22;29120;52.006;6.020;2022-10-16T07:50:46;14.40;99.90
43524;DHT22;29120;52.006;6.020;2022-10-16T07:53:12;14.60;99.90
43524;DHT22;29120;52.006;6.020;2022-10-16T07:55:38;14.70;99.90
43524;DHT22;29120;52.006;6.020;2022-10-16T07:58:04;14.80;99.90
43524;DHT22;29120;52.006;6.020;2022-10-16T08:00:30;14.90;99.90
43524;DHT22;29120;52.006;6.020;2022-10-16T08:02:57;15.20;99.90
43524;DHT22;29120;52.006;6.020;2022-10-16T08:05:26;15.40;99.90
43524;DHT22;29120;52.006;6.020;2022-10-16T08:07:52;15.60;99.90
43524;DHT22;29120;52.006;6.020;2022-10-16T08:10:20;15.70;99.90
43524;DHT22;29120;52.006;6.020;2022-10-16T08:12:46;15.70;99.90
43524;DHT22;29120;52.006;6.020;2022-10-16T08:15:12;15.90;99.90
43524;DHT22;29120;52.006;6.020;2022-10-16T08:17:38;16.00;99.90
43524;DHT22;29120;52.006;6.020;2022-10-16T08:20:04;16.20;99.90
43524;DHT22;29120;52.006;6.020;2022-10-16T08:22:30;16.60;99.90
43524;DHT22;29120;52.006;6.020;2022-10-16T08:24:55;17.60;99.90
43524;DHT22;29120;52.006;6.020;2022-10-16T08:27:21;18.60;99.90
43524;DHT22;29120;52.006;6.020;2022-10-16T08:29:48;19.50;99.90
43524;DHT22;29120;52.006;6.020;2022-10-16T08:32:14;20.60;99.90
43524;DHT22;29120;52.006;6.020;2022-10-16T08:34:39;21.10;98.90
43524;DHT22;29120;52.006;6.020;2022-10-16T08:37:05;21.80;97.50
43524;DHT22;29120;52.006;6.020;2022-10-16T08:39:32;22.30;96.10
43524;DHT22;29120;52.006;6.020;2022-10-16T08:42:11;22.20;94.90
43524;DHT22;29120;52.006;6.020;2022-10-16T08:50:07;20.80;95.90
43524;DHT22;29120;52.006;6.020;2022-10-16T08:52:35;20.20;96.40
43524;DHT22;29120;52.006;6.020;2022-10-16T08:55:04;20.40;96.60
43524;DHT22;29120;52.006;6.020;2022-10-16T08:57:30;20.70;95.90
43524;DHT22;29120;52.006;6.020;2022-10-16T09:00:00;21.10;94.70
43524;DHT22;29120;52.006;6.020;2022-10-16T09:02:37;21.00;93.40
43524;DHT22;29120;52.006;6.020;2022-10-16T09:05:18;20.50;93.60
43524;DHT22;29120;52.006;6.020;2022-10-16T09:07:55;20.90;93.70
43524;DHT22;29120;52.006;6.020;2022-10-16T09:10:56;21.30;93.30
43524;DHT22;29120;52.006;6.020;2022-10-16T09:16:35;21.90;93.30
43524;DHT22;29120;52.006;6.020;2022-10-16T09:19:30;22.70;92.30
43524;DHT22;29120;52.006;6.020;2022-10-16T09:21:57;23.60;88.60
43524;DHT22;29120;52.006;6.020;2022-10-16T09:24:25;24.00;87.90
43524;DHT22;29120;52.006;6.020;2022-10-16T09:26:51;24.50;84.90
43524;DHT22;29120;52.006;6.020;2022-10-16T09:29:19;25.20;84.40
43524;DHT22;29120;52.006;6.020;2022-10-16T09:31:51;25.40;82.00
43524;DHT22;29120;52.006;6.020;2022-10-16T09:36:44;23.30;83.80
43524;DHT22;29120;52.006;6.020;2022-10-16T09:39:11;22.10;85.50
43524;DHT22;29120;52.006;6.020;2022-10-16T09:41:40;21.20;87.50
43524;DHT22;29120;52.006;6.020;2022-10-16T09:46:48;20.00;90.30
43524;DHT22;29120;52.006;6.020;2022-10-16T09:49:23;19.60;91.20
43524;DHT22;29120;52.006;6.020;2022-10-16T09:51:49;19.30;91.60
43524;DHT22;29120;52.006;6.020;2022-10-16T09:54:17;19.10;91.70
43524;DHT22;29120;52.006;6.020;2022-10-16T09:56:43;18.80;92.10
43524;DHT22;29120;52.006;6.020;2022-10-16T09:59:17;18.60;92.20
43524;DHT22;29120;52.006;6.020;2022-10-16T10:01:45;18.50;92.60
43524;DHT22;29120;52.006;6.020;2022-10-16T10:04:12;18.30;92.90
43524;DHT22;29120;52.006;6.020;2022-10-16T10:06:47;18.30;93.00
43524;DHT22;29120;52.006;6.020;2022-10-16T10:09:15;18.30;93.30
43524;DHT22;29120;52.006;6.020;2022-10-16T10:11:54;18.30;93.40
43524;DHT22;29120;52.006;6.020;2022-10-16T10:14:22;18.30;93.90
43524;DHT22;29120;52.006;6.020;2022-10-16T10:16:49;18.30;94.00
43524;DHT22;29120;52.006;6.020;2022-10-16T10:19:21;18.40;94.10
43524;DHT22;29120;52.006;6.020;2022-10-16T10:21:47;18.50;94.00
43524;DHT22;29120;52.006;6.020;2022-10-16T10:24:14;18.70;94.10
43524;DHT22;29120;52.006;6.020;2022-10-16T10:26:57;18.90;94.30
43524;DHT22;29120;52.006;6.020;2022-10-16T10:29:27;19.30;93.80
43524;DHT22;29120;52.006;6.020;2022-10-16T10:37:40;22.90;89.40
43524;DHT22;29120;52.006;6.020;2022-10-16T10:42:54;25.40;79.90
43524;DHT22;29120;52.006;6.020;2022-10-16T10:45:27;25.70;79.00
43524;DHT22;29120;52.006;6.020;2022-10-16T10:50:45;27.90;75.20
43524;DHT22;29120;52.006;6.020;2022-10-16T10:59:27;29.40;68.50
43524;DHT22;29120;52.006;6.020;2022-10-16T11:04:49;29.70;66.80
43524;DHT22;29120;52.006;6.020;2022-10-16T11:07:37;30.00;68.10
43524;DHT22;29120;52.006;6.020;2022-10-16T11:10:16;30.40;64.60
43524;DHT22;29120;52.006;6.020;2022-10-16T11:12:47;30.90;60.40
43524;DHT22;29120;52.006;6.020;2022-10-16T11:15:18;29.90;60.90
43524;DHT22;29120;52.006;6.020;2022-10-16T11:20:53;29.50;61.20
43524;DHT22;29120;52.006;6.020;2022-10-16T11:23:42;29.70;59.20
43524;DHT22;29120;52.006;6.020;2022-10-16T11:26:20;30.40;58.90
43524;DHT22;29120;52.006;6.020;2022-10-16T11:28:52;31.20;58.50
43524;DHT22;29120;52.006;6.020;2022-10-16T11:34:35;30.30;57.70
43524;DHT22;29120;52.006;6.020;2022-10-16T11:37:12;30.30;56.30
43524;DHT22;29120;52.006;6.020;2022-10-16T11:39:38;30.90;55.60
43524;DHT22;29120;52.006;6.020;2022-10-16T11:42:33;30.40;54.90
43524;DHT22;29120;52.006;6.020;2022-10-16T11:48:18;28.90;58.10
43524;DHT22;29120;52.006;6.020;2022-10-16T11:51:16;29.90;56.90
43524;DHT22;29120;52.006;6.020;2022-10-16T11:53:56;30.60;55.50
43524;DHT22;29120;52.006;6.020;2022-10-16T11:56:24;31.00;54.10
43524;DHT22;29120;52.006;6.020;2022-10-16T12:01:33;32.00;52.70
43524;DHT22;29120;52.006;6.020;2022-10-16T12:06:53;32.30;51.30
43524;DHT22;29120;52.006;6.020;2022-10-16T12:09:34;32.20;51.70
43524;DHT22;29120;52.006;6.020;2022-10-16T12:12:00;32.30;51.20
43524;DHT22;29120;52.006;6.020;2022-10-16T12:14:38;31.50;51.80
43524;DHT22;29120;52.006;6.020;2022-10-16T12:17:25;31.70;51.90
43524;DHT22;29120;52.006;6.020;2022-10-16T12:20:00;31.70;50.70
43524;DHT22;29120;52.006;6.020;2022-10-16T12:22:28;30.60;51.90
43524;DHT22;29120;52.006;6.020;2022-10-16T12:24:55;30.30;52.00
43524;DHT22;29120;52.006;6.020;2022-10-16T12:27:30;30.70;52.70
43524;DHT22;29120;52.006;6.020;2022-10-16T12:30:01;31.20;51.70
43524;DHT22;29120;52.006;6.020;2022-10-16T12:32:33;31.50;51.80
43524;DHT22;29120;52.006;6.020;2022-10-16T12:35:00;31.80;51.50
43524;DHT22;29120;52.006;6.020;2022-10-16T12:37:32;31.70;50.90
43524;DHT22;29120;52.006;6.020;2022-10-16T12:39:59;30.50;50.60
43524;DHT22;29120;52.006;6.020;2022-10-16T12:44:54;30.20;52.10
43524;DHT22;29120;52.006;6.020;2022-10-16T12:47:36;30.80;50.90
43524;DHT22;29120;52.006;6.020;2022-10-16T12:50:03;31.00;50.60
43524;DHT22;29120;52.006;6.020;2022-10-16T12:52:39;30.90;50.50
43524;DHT22;29120;52.006;6.020;2022-10-16T12:55:12;31.20;50.00
43524;DHT22;29120;52.006;6.020;2022-10-16T13:00:35;28.40;51.90
43524;DHT22;29120;52.006;6.020;2022-10-16T13:03:09;27.30;53.50
43524;DHT22;29120;52.006;6.020;2022-10-16T13:14:55;30.00;52.60
43524;DHT22;29120;52.006;6.020;2022-10-16T13:23:22;30.40;49.40
43524;DHT22;29120;52.006;6.020;2022-10-16T13:28:38;30.40;49.20
43524;DHT22;29120;52.006;6.020;2022-10-16T13:31:05;30.40;48.60
43524;DHT22;29120;52.006;6.020;2022-10-16T13:33:38;30.30;48.20
43524;DHT22;29120;52.006;6.020;2022-10-16T13:36:05;29.40;48.90
43524;DHT22;29120;52.006;6.020;2022-10-16T13:38:34;28.20;50.30
43524;DHT22;29120;52.006;6.020;2022-10-16T13:41:11;27.20;51.90
43524;DHT22;29120;52.006;6.020;2022-10-16T13:43:50;26.40;53.20
43524;DHT22;29120;52.006;6.020;2022-10-16T13:46:23;25.70;54.10
43524;DHT22;29120;52.006;6.020;2022-10-16T13:49:04;25.30;55.50
43524;DHT22;29120;52.006;6.020;2022-10-16T13:51:31;24.90;56.70
43524;DHT22;29120;52.006;6.020;2022-10-16T13:53:58;24.40;57.00
43524;DHT22;29120;52.006;6.020;2022-10-16T13:56:29;24.00;57.90
43524;DHT22;29120;52.006;6.020;2022-10-16T13:59:02;23.70;58.00
43524;DHT22;29120;52.006;6.020;2022-10-16T14:01:47;23.40;58.30
43524;DHT22;29120;52.006;6.020;2022-10-16T14:04:14;23.00;58.00
43524;DHT22;29120;52.006;6.020;2022-10-16T14:06:45;22.70;58.90
43524;DHT22;29120;52.006;6.020;2022-10-16T14:11:48;22.20;58.90
43524;DHT22;29120;52.006;6.020;2022-10-16T14:14:17;22.00;59.10
43524;DHT22;29120;52.006;6.020;2022-10-16T14:16:43;21.80;59.50
43524;DHT22;29120;52.006;6.020;2022-10-16T14:19:29;21.70;59.80
43524;DHT22;29120;52.006;6.020;2022-10-16T14:21:56;21.70;60.30
43524;DHT22;29120;52.006;6.020;2022-10-16T14:26:53;21.70;61.30
43524;DHT22;29120;52.006;6.020;2022-10-16T14:29:21;21.70;61.20
43524;DHT22;29120;52.006;6.020;2022-10-16T14:32:05;21.60;61.70
43524;DHT22;29120;52.006;6.020;2022-10-16T14:34:36;21.60;62.70
43524;DHT22;29120;52.006;6.020;2022-10-16T14:37:09;21.60;62.80
43524;DHT22;29120;52.006;6.020;2022-10-16T14:39:39;21.60;63.20
43524;DHT22;29120;52.006;6.020;2022-10-16T14:42:14;21.70;63.90
43524;DHT22;29120;52.006;6.020;2022-10-16T14:44:42;21.80;64.00
43524;DHT22;29120;52.006;6.020;2022-10-16T14:47:13;21.90;64.20
43524;DHT22;29120;52.006;6.020;2022-10-16T14:49:42;22.00;64.30
43524;DHT22;29120;52.006;6.020;2022-10-16T14:52:11;22.00;65.30
43524;DHT22;29120;52.006;6.020;2022-10-16T14:54:37;22.00;64.40
43524;DHT22;29120;52.006;6.020;2022-10-16T14:57:03;21.90;64.80
43524;DHT22;29120;52.006;6.020;2022-10-16T14:59:37;21.70;65.00
43524;DHT22;29120;52.006;6.020;2022-10-16T15:02:32;21.60;65.70
43524;DHT22;29120;52.006;6.020;2022-10-16T15:05:20;21.40;65.50
43524;DHT22;29120;52.006;6.020;2022-10-16T15:07:48;21.30;66.10
43524;DHT22;29120;52.006;6.020;2022-10-16T15:10:16;21.30;65.90
43524;DHT22;29120;52.006;6.020;2022-10-16T15:12:42;21.30;65.90
43524;DHT22;29120;52.006;6.020;2022-10-16T15:17:49;21.30;66.20
43524;DHT22;29120;52.006;6.020;2022-10-16T15:20:17;21.30;67.10
43524;DHT22;29120;52.006;6.020;2022-10-16T15:22:43;21.20;67.70
43524;DHT22;29120;52.006;6.020;2022-10-16T15:26:01;21.10;68.50
43524;DHT22;29120;52.006;6.020;2022-10-16T15:28:21;20.90;69.00
43524;DHT22;29120;52.006;6.020;2022-10-16T15:30:49;20.80;69.50
43524;DHT22;29120;52.006;6.020;2022-10-16T15:33:20;20.70;69.40
43524;DHT22;29120;52.006;6.020;2022-10-16T15:35:48;20.60;69.40
43524;DHT22;29120;52.006;6.020;2022-10-16T15:38:14;20.50;69.60
43524;DHT22;29120;52.006;6.020;2022-10-16T15:40:41;20.30;70.60
43524;DHT22;29120;52.006;6.020;2022-10-16T15:43:07;20.20;71.50
43524;DHT22;29120;52.006;6.020;2022-10-16T15:45:32;20.10;72.60
43524;DHT22;29120;52.006;6.020;2022-10-16T15:47:58;20.10;73.50
43524;DHT22;29120;52.006;6.020;2022-10-16T15:50:24;20.00;74.30
43524;DHT22;29120;52.006;6.020;2022-10-16T15:52:50;19.90;75.00
43524;DHT22;29120;52.006;6.020;2022-10-16T15:55:15;19.80;75.70
43524;DHT22;29120;52.006;6.020;2022-10-16T15:57:42;19.70;76.20
43524;DHT22;29120;52.006;6.020;2022-10-16T16:00:13;19.60;76.70
43524;DHT22;29120;52.006;6.020;2022-10-16T16:02:40;19.60;77.30
43524;DHT22;29120;52.006;6.020;2022-10-16T16:05:08;19.50;77.80
43524;DHT22;29120;52.006;6.020;2022-10-16T16:07:34;19.50;78.10
43524;DHT22;29120;52.006;6.020;2022-10-16T16:10:01;19.40;78.60
43524;DHT22;29120;52.006;6.020;2022-10-16T16:12:27;19.30;79.10
43524;DHT22;29120;52.006;6.020;2022-10-16T16:14:52;19.20;79.40
43524;DHT22;29120;52.006;6.020;2022-10-16T16:17:18;19.10;79.60
43524;DHT22;29120;52.006;6.020;2022-10-16T16:19:43;19.00;79.70
43524;DHT22;29120;52.006;6.020;2022-10-16T16:22:10;18.90;80.20
43524;DHT22;29120;52.006;6.020;2022-10-16T16:24:36;18.80;80.70
43524;DHT22;29120;52.006;6.020;2022-10-16T16:27:01;18.80;81.00
43524;DHT22;29120;52.006;6.020;2022-10-16T16:29:27;18.70;81.50
43524;DHT22;29120;52.006;6.020;2022-10-16T16:31:52;18.60;82.00
43524;DHT22;29120;52.006;6.020;2022-10-16T16:34:23;18.50;82.30
43524;DHT22;29120;52.006;6.020;2022-10-16T16:36:50;18.40;82.60
43524;DHT22;29120;52.006;6.020;2022-10-16T16:39:15;18.40;83.00
43524;DHT22;29120;52.006;6.020;2022-10-16T16:41:41;18.30;83.30
43524;DHT22;29120;52.006;6.020;2022-10-16T16:44:08;18.20;83.70
43524;DHT22;29120;52.006;6.020;2022-10-16T16:46:36;18.10;84.10
43524;DHT22;29120;52.006;6.020;2022-10-16T16:49:03;18.10;84.40
43524;DHT22;29120;52.006;6.020;2022-10-16T16:51:28;18.10;84.70
43524;DHT22;29120;52.006;6.020;2022-10-16T16:53:54;18.00;84.90
43524;DHT22;29120;52.006;6.020;2022-10-16T16:56:21;17.90;85.30
43524;DHT22;29120;52.006;6.020;2022-10-16T16:58:49;17.80;85.70
43524;DHT22;29120;52.006;6.020;2022-10-16T17:01:15;17.80;86.00
43524;DHT22;29120;52.006;6.020;2022-10-16T17:03:43;17.80;86.40
43524;DHT22;29120;52.006;6.020;2022-10-16T17:06:13;17.70;86.70
43524;DHT22;29120;52.006;6.020;2022-10-16T17:08:40;17.60;87.00
43524;DHT22;29120;52.006;6.020;2022-10-16T17:11:06;17.60;87.30
43524;DHT22;29120;52.006;6.020;2022-10-16T17:13:36;17.60;87.60
43524;DHT22;29120;52.006;6.020;2022-10-16T17:16:04;17.50;87.90